Time,TemperatureF,DewpointF,PressureIn,WindDirection,WindDirectionDegrees,WindSpeedMPH,WindSpeedGustMPH,Humidity,HourlyPrecipIn,Conditions,Clouds,dailyrainin,SoftwareType,DateUTC
2013-11-22 00:01:00,18.3,10.2,30.56,NNW,336,7.0,8.0,70,0.00,,---,0.00,VWS V14.01,2013-11-22 06:01:00,
2013-11-22 00:06:00,18.3,10.2,30.56,North,0,3.0,8.0,70,0.00,,---,0.00,VWS V14.01,2013-11-22 06:06:00,
2013-11-22 00:11:00,18.3,10.2,30.56,North,354,7.0,8.0,70,0.00,,---,0.00,VWS V14.01,2013-11-22 06:11:00,
2013-11-22 00:16:00,18.3,10.5,30.56,NNW,332,2.0,8.0,71,0.00,,---,0.00,VWS V14.01,2013-11-22 06:16:00,
2013-11-22 00:21:00,18.0,10.2,30.56,NNW,346,4.0,6.0,71,0.00,,---,0.00,VWS V14.01,2013-11-22 06:21:00,
2013-11-22 00:26:00,17.8,10.3,30.56,NNW,347,3.0,6.0,72,0.00,,---,0.00,VWS V14.01,2013-11-22 06:26:00,
2013-11-22 00:31:00,17.8,10.0,30.56,North,357,7.0,10.0,71,0.00,,---,0.00,VWS V14.01,2013-11-22 06:31:00,
2013-11-22 00:35:00,17.7,10.2,30.56,NNW,339,7.0,10.0,72,0.00,,---,0.00,VWS V14.01,2013-11-22 06:35:00,
2013-11-22 00:40:00,17.5,10.0,30.56,NNW,328,4.0,5.0,72,0.00,,---,0.00,VWS V14.01,2013-11-22 06:40:00,
2013-11-22 00:45:00,17.3,9.8,30.56,North,349,3.0,7.0,72,0.00,,---,0.00,VWS V14.01,2013-11-22 06:45:00,
2013-11-22 00:50:00,17.2,9.7,30.56,North,350,5.0,6.0,72,0.00,,---,0.00,VWS V14.01,2013-11-22 06:50:00,
2013-11-22 00:55:00,17.2,10.1,30.56,NW,323,8.0,8.0,73,0.00,,---,0.00,VWS V14.01,2013-11-22 06:55:00,
2013-11-22 01:00:00,17.0,9.9,30.57,North,359,5.0,6.0,73,0.00,,---,0.00,VWS V14.01,2013-11-22 07:00:00,
2013-11-22 01:05:00,17.0,9.9,30.57,NNW,339,2.0,6.0,73,0.00,,---,0.00,VWS V14.01,2013-11-22 07:05:00,
2013-11-22 01:10:00,16.9,9.8,30.57,NNW,335,5.0,6.0,73,0.00,,---,0.00,VWS V14.01,2013-11-22 07:10:00,
2013-11-22 01:15:00,16.9,9.8,30.57,NNW,339,5.0,10.0,73,0.00,,---,0.00,VWS V14.01,2013-11-22 07:15:00,
2013-11-22 01:20:00,16.7,9.6,30.57,NNW,329,2.0,5.0,73,0.00,,---,0.00,VWS V14.01,2013-11-22 07:20:00,
2013-11-22 01:25:00,16.7,9.6,30.57,North,349,2.0,6.0,73,0.00,,---,0.00,VWS V14.01,2013-11-22 07:25:00,
2013-11-22 01:30:00,16.5,9.1,30.57,NNW,340,2.0,2.0,72,0.00,,---,0.00,VWS V14.01,2013-11-22 07:30:00,
2013-11-22 01:35:00,16.5,9.4,30.57,NNW,347,2.0,5.0,73,0.00,,---,0.00,VWS V14.01,2013-11-22 07:35:00,
2013-11-22 01:40:00,16.4,9.6,30.57,NNW,330,5.0,5.0,74,0.00,,---,0.00,VWS V14.01,2013-11-22 07:40:00,
2013-11-22 01:45:00,16.2,9.7,30.58,North,352,3.0,6.0,75,0.00,,---,0.00,VWS V14.01,2013-11-22 07:45:00,
2013-11-22 01:50:00,15.9,9.4,30.58,NNW,342,2.0,4.0,75,0.00,,---,0.00,VWS V14.01,2013-11-22 07:50:00,
2013-11-22 01:55:00,15.7,9.2,30.58,NNW,332,1.0,4.0,75,0.00,,---,0.00,VWS V14.01,2013-11-22 07:55:00,
2013-11-22 02:00:00,15.6,9.1,30.57,NW,323,2.0,3.0,75,0.00,,---,0.00,VWS V14.01,2013-11-22 08:00:00,
2013-11-22 02:05:00,15.4,8.9,30.57,NNW,342,3.0,5.0,75,0.00,,---,0.00,VWS V14.01,2013-11-22 08:05:00,
2013-11-22 02:10:00,15.2,8.7,30.57,NW,318,2.0,3.0,75,0.00,,---,0.00,VWS V14.01,2013-11-22 08:10:00,
2013-11-22 02:15:00,14.9,8.7,30.57,NNW,342,3.0,4.0,76,0.00,,---,0.00,VWS V14.01,2013-11-22 08:15:00,
2013-11-22 02:20:00,14.8,8.6,30.57,North,349,2.0,2.0,76,0.00,,---,0.00,VWS V14.01,2013-11-22 08:20:00,
2013-11-22 02:25:00,14.6,8.7,30.57,NNW,343,2.0,5.0,77,0.00,,---,0.00,VWS V14.01,2013-11-22 08:25:00,
2013-11-22 02:30:00,14.6,8.7,30.58,NNW,329,5.0,5.0,77,0.00,,---,0.00,VWS V14.01,2013-11-22 08:30:00,
2013-11-22 02:35:00,14.4,8.5,30.58,North,353,3.0,5.0,77,0.00,,---,0.00,VWS V14.01,2013-11-22 08:35:00,
2013-11-22 02:40:00,14.4,8.2,30.58,NNW,330,2.0,6.0,76,0.00,,---,0.00,VWS V14.01,2013-11-22 08:40:00,
2013-11-22 02:45:00,14.3,8.1,30.58,NNW,340,4.0,7.0,76,0.00,,---,0.00,VWS V14.01,2013-11-22 08:45:00,
2013-11-22 02:50:00,14.1,7.9,30.58,NNW,343,3.0,5.0,76,0.00,,---,0.00,VWS V14.01,2013-11-22 08:50:00,
2013-11-22 02:55:00,14.0,7.6,30.58,NNW,346,4.0,6.0,75,0.00,,---,0.00,VWS V14.01,2013-11-22 08:55:00,
2013-11-22 03:00:00,14.0,7.6,30.58,North,359,4.0,4.0,75,0.00,,---,0.00,VWS V14.01,2013-11-22 09:00:00,
2013-11-22 03:05:00,13.8,7.4,30.58,NNW,343,3.0,6.0,75,0.00,,---,0.00,VWS V14.01,2013-11-22 09:05:00,
2013-11-22 03:10:00,13.6,7.5,30.58,NNW,347,4.0,5.0,76,0.00,,---,0.00,VWS V14.01,2013-11-22 09:10:00,
2013-11-22 03:15:00,13.5,7.4,30.57,North,0,5.0,6.0,76,0.00,,---,0.00,VWS V14.01,2013-11-22 09:15:00,
2013-11-22 03:20:00,13.3,7.2,30.57,NNW,340,5.0,5.0,76,0.00,,---,0.00,VWS V14.01,2013-11-22 09:20:00,
2013-11-22 03:25:00,13.3,7.2,30.57,North,0,4.0,6.0,76,0.00,,---,0.00,VWS V14.01,2013-11-22 09:25:00,
2013-11-22 03:30:00,13.1,7.0,30.57,North,352,5.0,5.0,76,0.00,,---,0.00,VWS V14.01,2013-11-22 09:30:00,
2013-11-22 03:35:00,13.1,7.0,30.57,NNW,344,4.0,7.0,76,0.00,,---,0.00,VWS V14.01,2013-11-22 09:35:00,
2013-11-22 03:40:00,12.9,7.1,30.57,North,352,3.0,8.0,77,0.00,,---,0.00,VWS V14.01,2013-11-22 09:40:00,
2013-11-22 03:45:00,12.8,7.0,30.57,North,0,2.0,6.0,77,0.00,,---,0.00,VWS V14.01,2013-11-22 09:45:00,
2013-11-22 03:50:00,12.8,7.2,30.57,North,356,3.0,6.0,78,0.00,,---,0.00,VWS V14.01,2013-11-22 09:50:00,
2013-11-22 03:55:00,12.6,7.1,30.57,North,0,3.0,6.0,78,0.00,,---,0.00,VWS V14.01,2013-11-22 09:55:00,
2013-11-22 04:00:00,12.4,6.9,30.57,NNW,333,3.0,6.0,78,0.00,,---,0.00,VWS V14.01,2013-11-22 10:00:00,
2013-11-22 04:05:00,12.4,6.9,30.57,North,352,2.0,7.0,78,0.00,,---,0.00,VWS V14.01,2013-11-22 10:05:00,
2013-11-22 04:10:00,12.3,6.8,30.57,NNW,347,5.0,7.0,78,0.00,,---,0.00,VWS V14.01,2013-11-22 10:10:00,
2013-11-22 04:15:00,12.1,6.6,30.57,North,353,4.0,7.0,78,0.00,,---,0.00,VWS V14.01,2013-11-22 10:15:00,
2013-11-22 04:20:00,11.9,6.4,30.57,NNW,336,3.0,7.0,78,0.00,,---,0.00,VWS V14.01,2013-11-22 10:20:00,
2013-11-22 04:25:00,11.9,6.7,30.57,NNW,344,5.0,7.0,79,0.00,,---,0.00,VWS V14.01,2013-11-22 10:25:00,
2013-11-22 04:30:00,11.7,6.5,30.57,North,359,3.0,7.0,79,0.00,,---,0.00,VWS V14.01,2013-11-22 10:30:00,
2013-11-22 04:35:00,11.7,6.5,30.57,North,11,5.0,7.0,79,0.00,,---,0.00,VWS V14.01,2013-11-22 10:35:00,
2013-11-22 04:40:00,11.6,6.4,30.57,NNW,339,7.0,8.0,79,0.00,,---,0.00,VWS V14.01,2013-11-22 10:40:00,
2013-11-22 04:45:00,11.6,6.4,30.57,NNW,346,1.0,6.0,79,0.00,,---,0.00,VWS V14.01,2013-11-22 10:45:00,
2013-11-22 04:50:00,11.4,6.2,30.57,NW,323,2.0,6.0,79,0.00,,---,0.00,VWS V14.01,2013-11-22 10:50:00,
2013-11-22 04:55:00,11.2,6.0,30.57,NNW,332,0.0,3.0,79,0.00,,---,0.00,VWS V14.01,2013-11-22 10:55:00,
2013-11-22 05:00:00,11.1,5.9,30.57,NNW,346,3.0,5.0,79,0.00,,---,0.00,VWS V14.01,2013-11-22 11:00:00,
2013-11-22 05:05:00,11.2,6.2,30.57,NNW,335,0.0,6.0,80,0.00,,---,0.00,VWS V14.01,2013-11-22 11:05:00,
2013-11-22 05:10:00,11.2,6.2,30.57,NNW,333,0.0,6.0,80,0.00,,---,0.00,VWS V14.01,2013-11-22 11:10:00,
2013-11-22 05:15:00,10.9,5.9,30.56,NNW,333,0.0,0.0,80,0.00,,---,0.00,VWS V14.01,2013-11-22 11:15:00,
2013-11-22 05:20:00,10.7,6.0,30.56,NNW,333,0.0,0.0,81,0.00,,---,0.00,VWS V14.01,2013-11-22 11:20:00,
2013-11-22 05:25:00,10.4,5.7,30.56,NNW,333,1.0,1.0,81,0.00,,---,0.00,VWS V14.01,2013-11-22 11:25:00,
2013-11-22 05:30:00,9.9,5.5,30.57,NNW,333,0.0,2.0,82,0.00,,---,0.00,VWS V14.01,2013-11-22 11:30:00,
2013-11-22 05:35:00,9.7,5.6,30.57,NNW,333,0.0,2.0,83,0.00,,---,0.00,VWS V14.01,2013-11-22 11:35:00,
2013-11-22 05:40:00,9.5,5.7,30.57,NNW,333,1.0,2.0,84,0.00,,---,0.00,VWS V14.01,2013-11-22 11:40:00,
2013-11-22 05:45:00,9.5,5.7,30.58,North,0,1.0,3.0,84,0.00,,---,0.00,VWS V14.01,2013-11-22 11:45:00,
2013-11-22 05:50:00,9.7,6.4,30.58,North,0,1.0,3.0,86,0.00,,---,0.00,VWS V14.01,2013-11-22 11:50:00,
2013-11-22 05:55:00,10.2,6.8,30.58,NW,319,3.0,4.0,86,0.00,,---,0.00,VWS V14.01,2013-11-22 11:55:00,
2013-11-22 06:00:00,10.4,7.1,30.59,NNW,332,2.0,4.0,86,0.00,,---,0.00,VWS V14.01,2013-11-22 12:00:00,
2013-11-22 06:05:00,10.4,7.3,30.59,NW,319,1.0,6.0,87,0.00,,---,0.00,VWS V14.01,2013-11-22 12:05:00,
2013-11-22 06:10:00,10.2,6.8,30.59,WNW,288,1.0,6.0,86,0.00,,---,0.00,VWS V14.01,2013-11-22 12:10:00,
2013-11-22 06:15:00,10.0,6.9,30.59,WNW,302,3.0,4.0,87,0.00,,---,0.00,VWS V14.01,2013-11-22 12:15:00,
2013-11-22 06:20:00,9.9,6.8,30.59,NW,318,2.0,4.0,87,0.00,,---,0.00,VWS V14.01,2013-11-22 12:20:00,
2013-11-22 06:25:00,9.7,6.6,30.59,NW,318,0.0,3.0,87,0.00,,---,0.00,VWS V14.01,2013-11-22 12:25:00,
2013-11-22 06:30:00,9.5,6.4,30.59,NW,325,0.0,3.0,87,0.00,,---,0.00,VWS V14.01,2013-11-22 12:30:00,
2013-11-22 06:35:00,9.3,6.2,30.59,NW,325,0.0,3.0,87,0.00,,---,0.00,VWS V14.01,2013-11-22 12:35:00,
2013-11-22 06:40:00,9.2,6.1,30.59,NW,325,1.0,3.0,87,0.00,,---,0.00,VWS V14.01,2013-11-22 12:40:00,
2013-11-22 06:45:00,9.2,6.1,30.57,WNW,285,3.0,3.0,87,0.00,,---,0.00,VWS V14.01,2013-11-22 12:45:00,
2013-11-22 06:50:00,9.0,5.9,30.57,West,260,1.0,4.0,87,0.00,,---,0.00,VWS V14.01,2013-11-22 12:50:00,
2013-11-22 06:55:00,8.8,5.7,30.57,West,260,1.0,2.0,87,0.00,,---,0.00,VWS V14.01,2013-11-22 12:55:00,
2013-11-22 06:59:00,8.6,5.5,30.57,West,260,1.0,2.0,87,0.00,,---,0.00,VWS V14.01,2013-11-22 12:59:00,
2013-11-22 07:04:00,8.4,5.3,30.57,WSW,257,1.0,2.0,87,0.00,,---,0.00,VWS V14.01,2013-11-22 13:04:00,
2013-11-22 07:09:00,8.3,5.2,30.57,WSW,257,1.0,3.0,87,0.00,,---,0.00,VWS V14.01,2013-11-22 13:09:00,
2013-11-22 07:14:00,8.3,5.2,30.58,WSW,256,0.0,2.0,87,0.00,,---,0.00,VWS V14.01,2013-11-22 13:14:00,
2013-11-22 07:19:00,8.1,4.8,30.58,WSW,256,1.0,2.0,86,0.00,,---,0.00,VWS V14.01,2013-11-22 13:19:00,
2013-11-22 07:24:00,7.9,4.6,30.58,WSW,243,0.0,2.0,86,0.00,,---,0.00,VWS V14.01,2013-11-22 13:24:00,
2013-11-22 07:29:00,7.6,4.3,30.58,WSW,243,1.0,2.0,86,0.00,,---,0.00,VWS V14.01,2013-11-22 13:29:00,
2013-11-22 07:34:00,7.6,4.6,30.58,WSW,250,4.0,5.0,87,0.00,,---,0.00,VWS V14.01,2013-11-22 13:34:00,
2013-11-22 07:39:00,7.6,4.6,30.58,WSW,239,1.0,5.0,87,0.00,,---,0.00,VWS V14.01,2013-11-22 13:39:00,
2013-11-22 07:44:00,7.7,4.7,30.58,WSW,246,2.0,2.0,87,0.00,,---,0.00,VWS V14.01,2013-11-22 13:44:00,
2013-11-22 07:49:00,7.9,4.8,30.58,WSW,237,2.0,6.0,87,0.00,,---,0.00,VWS V14.01,2013-11-22 13:49:00,
2013-11-22 07:54:00,8.3,5.2,30.58,WSW,250,5.0,6.0,87,0.00,,---,0.00,VWS V14.01,2013-11-22 13:54:00,
2013-11-22 07:59:00,8.8,5.7,30.58,West,263,5.0,6.0,87,0.00,,---,0.00,VWS V14.01,2013-11-22 13:59:00,
2013-11-22 08:04:00,9.3,6.0,30.58,West,260,5.0,7.0,86,0.00,,---,0.00,VWS V14.01,2013-11-22 14:04:00,
2013-11-22 08:09:00,9.5,6.2,30.58,West,271,5.0,7.0,86,0.00,,---,0.00,VWS V14.01,2013-11-22 14:09:00,
2013-11-22 08:14:00,9.7,6.4,30.58,WSW,257,5.0,7.0,86,0.00,,---,0.00,VWS V14.01,2013-11-22 14:14:00,
2013-11-22 08:19:00,9.7,6.4,30.58,WSW,248,5.0,7.0,86,0.00,,---,0.00,VWS V14.01,2013-11-22 14:19:00,
2013-11-22 08:24:00,10.0,6.7,30.58,WSW,248,6.0,7.0,86,0.00,,---,0.00,VWS V14.01,2013-11-22 14:24:00,
2013-11-22 08:29:00,10.4,7.1,30.58,WSW,244,6.0,8.0,86,0.00,,---,0.00,VWS V14.01,2013-11-22 14:29:00,
2013-11-22 08:34:00,10.7,7.1,30.58,WSW,247,5.0,6.0,85,0.00,,---,0.00,VWS V14.01,2013-11-22 14:34:00,
2013-11-22 08:39:00,11.2,7.3,30.58,WSW,241,3.0,7.0,84,0.00,,---,0.00,VWS V14.01,2013-11-22 14:39:00,
2013-11-22 08:44:00,11.9,7.7,30.57,SW,233,5.0,6.0,83,0.00,,---,0.00,VWS V14.01,2013-11-22 14:44:00,
2013-11-22 08:49:00,12.4,7.7,30.57,SW,233,6.0,6.0,81,0.00,,---,0.00,VWS V14.01,2013-11-22 14:49:00,
2013-11-22 08:54:00,12.8,7.8,30.57,WSW,240,6.0,7.0,80,0.00,,---,0.00,VWS V14.01,2013-11-22 14:54:00,
2013-11-22 08:59:00,13.3,8.6,30.57,WSW,248,5.0,7.0,81,0.00,,---,0.00,VWS V14.01,2013-11-22 14:59:00,
2013-11-22 09:04:00,13.8,8.5,30.57,WSW,247,7.0,10.0,79,0.00,,---,0.00,VWS V14.01,2013-11-22 15:04:00,
2013-11-22 09:09:00,14.3,8.4,30.57,West,265,6.0,10.0,77,0.00,,---,0.00,VWS V14.01,2013-11-22 15:09:00,
2013-11-22 09:14:00,14.3,7.2,30.57,WSW,248,8.0,11.0,73,0.00,,---,0.00,VWS V14.01,2013-11-22 15:14:00,
2013-11-22 09:19:00,14.4,6.7,30.57,WSW,258,6.0,11.0,71,0.00,,---,0.00,VWS V14.01,2013-11-22 15:19:00,
2013-11-22 09:24:00,14.6,6.6,30.57,WSW,251,11.0,12.0,70,0.00,,---,0.00,VWS V14.01,2013-11-22 15:24:00,
2013-11-22 09:29:00,14.9,6.3,30.56,WSW,247,7.0,12.0,68,0.00,,---,0.00,VWS V14.01,2013-11-22 15:29:00,
2013-11-22 09:34:00,15.4,6.7,30.56,WSW,243,6.0,11.0,68,0.00,,---,0.00,VWS V14.01,2013-11-22 15:34:00,
2013-11-22 09:39:00,16.1,7.1,30.56,WSW,250,7.0,12.0,67,0.00,,---,0.00,VWS V14.01,2013-11-22 15:39:00,
2013-11-22 09:44:00,16.4,7.0,30.55,WSW,246,7.0,11.0,66,0.00,,---,0.00,VWS V14.01,2013-11-22 15:44:00,
2013-11-22 09:49:00,16.7,6.7,30.55,WSW,247,10.0,12.0,64,0.00,,---,0.00,VWS V14.01,2013-11-22 15:49:00,
2013-11-22 09:54:00,17.0,6.6,30.55,SW,224,7.0,10.0,63,0.00,,---,0.00,VWS V14.01,2013-11-22 15:54:00,
2013-11-22 09:59:00,17.5,7.1,30.55,SSW,213,7.0,11.0,63,0.00,,---,0.00,VWS V14.01,2013-11-22 15:59:00,
2013-11-22 10:04:00,17.8,7.3,30.55,SW,233,7.0,11.0,63,0.00,,---,0.00,VWS V14.01,2013-11-22 16:04:00,
2013-11-22 10:09:00,18.1,7.3,30.55,SW,217,7.0,12.0,62,0.00,,---,0.00,VWS V14.01,2013-11-22 16:09:00,
2013-11-22 10:14:00,18.4,7.6,30.53,WSW,237,7.0,10.0,62,0.00,,---,0.00,VWS V14.01,2013-11-22 16:14:00,
2013-11-22 10:19:00,18.9,7.3,30.53,WSW,254,7.0,12.0,60,0.00,,---,0.00,VWS V14.01,2013-11-22 16:19:00,
2013-11-22 10:24:00,19.2,6.9,30.53,SW,215,6.0,11.0,58,0.00,,---,0.00,VWS V14.01,2013-11-22 16:24:00,
2013-11-22 10:29:00,19.7,7.3,30.52,SW,229,8.0,12.0,58,0.00,,---,0.00,VWS V14.01,2013-11-22 16:29:00,
2013-11-22 10:34:00,20.3,7.1,30.52,WSW,237,6.0,10.0,56,0.00,,---,0.00,VWS V14.01,2013-11-22 16:34:00,
2013-11-22 10:39:00,21.0,7.4,30.52,WSW,243,8.0,10.0,55,0.00,,---,0.00,VWS V14.01,2013-11-22 16:39:00,
2013-11-22 10:44:00,21.6,7.5,30.52,WSW,254,13.0,13.0,54,0.00,,---,0.00,VWS V14.01,2013-11-22 16:44:00,
2013-11-22 10:49:00,22.4,7.4,30.52,West,261,8.0,13.0,52,0.00,,---,0.00,VWS V14.01,2013-11-22 16:49:00,
2013-11-22 10:54:00,22.9,6.2,30.52,SW,233,10.0,13.0,48,0.00,,---,0.00,VWS V14.01,2013-11-22 16:54:00,
2013-11-22 10:59:00,23.5,6.7,30.52,West,264,11.0,16.0,48,0.00,,---,0.00,VWS V14.01,2013-11-22 16:59:00,
2013-11-22 11:04:00,23.8,7.4,30.51,WSW,237,7.0,18.0,49,0.00,,---,0.00,VWS V14.01,2013-11-22 17:04:00,
2013-11-22 11:09:00,24.2,7.8,30.51,SSW,196,8.0,18.0,49,0.00,,---,0.00,VWS V14.01,2013-11-22 17:09:00,
2013-11-22 11:14:00,24.5,6.7,30.51,SW,217,9.0,14.0,46,0.00,,---,0.00,VWS V14.01,2013-11-22 17:14:00,
2013-11-22 11:19:00,25.0,6.7,30.50,WSW,241,10.0,14.0,45,0.00,,---,0.00,VWS V14.01,2013-11-22 17:19:00,
2013-11-22 11:24:00,25.7,5.8,30.50,WSW,258,8.0,17.0,42,0.00,,---,0.00,VWS V14.01,2013-11-22 17:24:00,
2013-11-22 11:29:00,26.1,6.2,30.50,West,271,7.0,17.0,42,0.00,,---,0.00,VWS V14.01,2013-11-22 17:29:00,
2013-11-22 11:34:00,26.7,6.2,30.50,WSW,256,12.0,17.0,41,0.00,,---,0.00,VWS V14.01,2013-11-22 17:34:00,
2013-11-22 11:39:00,26.7,7.7,30.50,WSW,244,10.0,18.0,44,0.00,,---,0.00,VWS V14.01,2013-11-22 17:39:00,
2013-11-22 11:44:00,27.3,7.2,30.50,West,267,10.0,17.0,42,0.00,,---,0.00,VWS V14.01,2013-11-22 17:44:00,
2013-11-22 11:49:00,27.5,5.8,30.50,WSW,257,11.0,18.0,39,0.00,,---,0.00,VWS V14.01,2013-11-22 17:49:00,
2013-11-22 11:54:00,27.8,6.6,30.50,WSW,244,14.0,18.0,40,0.00,,---,0.00,VWS V14.01,2013-11-22 17:54:00,
2013-11-22 11:59:00,28.1,6.9,30.50,WSW,256,8.0,18.0,40,0.00,,---,0.00,VWS V14.01,2013-11-22 17:59:00,
2013-11-22 12:04:00,28.7,6.3,30.49,WSW,251,7.0,18.0,38,0.00,,---,0.00,VWS V14.01,2013-11-22 18:04:00,
2013-11-22 12:09:00,29.0,7.2,30.49,West,275,13.0,18.0,39,0.00,,---,0.00,VWS V14.01,2013-11-22 18:09:00,
2013-11-22 12:14:00,29.3,7.4,30.49,West,265,11.0,16.0,39,0.00,,---,0.00,VWS V14.01,2013-11-22 18:14:00,
2013-11-22 12:19:00,29.4,6.4,30.49,West,267,11.0,19.0,37,0.00,,---,0.00,VWS V14.01,2013-11-22 18:19:00,
2013-11-22 12:24:00,29.4,6.4,30.49,West,271,13.0,17.0,37,0.00,,---,0.00,VWS V14.01,2013-11-22 18:24:00,
2013-11-22 12:29:00,29.5,5.8,30.49,WSW,248,17.0,19.0,36,0.00,,---,0.00,VWS V14.01,2013-11-22 18:29:00,
2013-11-22 12:34:00,29.8,5.5,30.48,West,267,13.0,16.0,35,0.00,,---,0.00,VWS V14.01,2013-11-22 18:34:00,
2013-11-22 12:39:00,30.4,6.7,30.48,WSW,258,12.0,17.0,36,0.00,,---,0.00,VWS V14.01,2013-11-22 18:39:00,
2013-11-22 12:44:00,30.6,5.6,30.48,West,267,12.0,16.0,34,0.00,,---,0.00,VWS V14.01,2013-11-22 18:44:00,
2013-11-22 12:49:00,30.4,4.1,30.47,West,267,11.0,22.0,32,0.00,,---,0.00,VWS V14.01,2013-11-22 18:49:00,
2013-11-22 12:54:00,30.3,4.0,30.47,WSW,258,14.0,21.0,32,0.00,,---,0.00,VWS V14.01,2013-11-22 18:54:00,
2013-11-22 12:59:00,30.0,5.1,30.47,West,260,7.0,24.0,34,0.00,,---,0.00,VWS V14.01,2013-11-22 18:59:00,
2013-11-22 13:04:00,30.3,3.3,30.47,West,278,11.0,14.0,31,0.00,,---,0.00,VWS V14.01,2013-11-22 19:04:00,
2013-11-22 13:09:00,30.3,4.7,30.47,WNW,282,7.0,14.0,33,0.00,,---,0.00,VWS V14.01,2013-11-22 19:09:00,
2013-11-22 13:14:00,30.4,4.8,30.47,WNW,292,9.0,14.0,33,0.00,,---,0.00,VWS V14.01,2013-11-22 19:14:00,
2013-11-22 13:19:00,30.3,5.9,30.47,West,278,8.0,18.0,35,0.00,,---,0.00,VWS V14.01,2013-11-22 19:19:00,
2013-11-22 13:24:00,30.3,5.3,30.47,WNW,292,7.0,17.0,34,0.00,,---,0.00,VWS V14.01,2013-11-22 19:24:00,
2013-11-22 13:29:00,30.4,5.4,30.47,WSW,251,12.0,17.0,34,0.00,,---,0.00,VWS V14.01,2013-11-22 19:29:00,
2013-11-22 13:34:00,30.3,4.7,30.47,WNW,295,11.0,17.0,33,0.00,,---,0.00,VWS V14.01,2013-11-22 19:34:00,
2013-11-22 13:39:00,30.0,5.7,30.47,NNW,329,10.0,18.0,35,0.00,,---,0.00,VWS V14.01,2013-11-22 19:39:00,
2013-11-22 13:44:00,30.0,5.1,30.47,West,280,12.0,13.0,34,0.00,,---,0.00,VWS V14.01,2013-11-22 19:44:00,
2013-11-22 13:49:00,30.0,5.7,30.47,West,281,7.0,16.0,35,0.00,,---,0.00,VWS V14.01,2013-11-22 19:49:00,
2013-11-22 13:54:00,30.4,6.0,30.47,WNW,287,6.0,11.0,35,0.00,,---,0.00,VWS V14.01,2013-11-22 19:54:00,
2013-11-22 13:59:00,30.4,6.0,30.47,WNW,284,3.0,13.0,35,0.00,,---,0.00,VWS V14.01,2013-11-22 19:59:00,
2013-11-22 14:04:00,30.6,5.6,30.46,WNW,295,10.0,14.0,34,0.00,,---,0.00,VWS V14.01,2013-11-22 20:04:00,
2013-11-22 14:09:00,30.1,6.4,30.46,NW,308,8.0,20.0,36,0.00,,---,0.00,VWS V14.01,2013-11-22 20:09:00,
2013-11-22 14:14:00,30.4,5.4,30.46,NW,305,7.0,14.0,34,0.00,,---,0.00,VWS V14.01,2013-11-22 20:14:00,
2013-11-22 14:19:00,30.7,6.9,30.46,WNW,282,12.0,16.0,36,0.00,,---,0.00,VWS V14.01,2013-11-22 20:19:00,
2013-11-22 14:24:00,31.0,7.8,30.46,NW,304,7.0,13.0,37,0.00,,---,0.00,VWS V14.01,2013-11-22 20:24:00,
2013-11-22 14:29:00,30.7,7.5,30.46,West,278,7.0,13.0,37,0.00,,---,0.00,VWS V14.01,2013-11-22 20:29:00,
2013-11-22 14:34:00,30.3,8.9,30.46,NW,306,8.0,19.0,40,0.00,,---,0.00,VWS V14.01,2013-11-22 20:34:00,
2013-11-22 14:39:00,30.3,9.4,30.46,NW,306,5.0,19.0,41,0.00,,---,0.00,VWS V14.01,2013-11-22 20:39:00,
2013-11-22 14:44:00,29.8,10.1,30.46,NW,305,11.0,16.0,43,0.00,,---,0.00,VWS V14.01,2013-11-22 20:44:00,
2013-11-22 14:49:00,29.7,10.5,30.46,WNW,287,4.0,16.0,44,0.00,,---,0.00,VWS V14.01,2013-11-22 20:49:00,
2013-11-22 14:54:00,29.8,10.6,30.46,WNW,301,8.0,12.0,44,0.00,,---,0.00,VWS V14.01,2013-11-22 20:54:00,
2013-11-22 14:59:00,30.0,11.2,30.46,WNW,289,6.0,14.0,45,0.00,,---,0.00,VWS V14.01,2013-11-22 20:59:00,
2013-11-22 15:04:00,29.8,11.1,30.46,NNW,328,8.0,16.0,45,0.00,,---,0.00,VWS V14.01,2013-11-22 21:04:00,
2013-11-22 15:09:00,29.5,10.8,30.46,NW,315,15.0,19.0,45,0.00,,---,0.00,VWS V14.01,2013-11-22 21:09:00,
2013-11-22 15:14:00,29.7,11.5,30.46,NNW,328,6.0,13.0,46,0.00,,---,0.00,VWS V14.01,2013-11-22 21:14:00,
2013-11-22 15:19:00,29.3,10.6,30.47,WNW,287,6.0,19.0,45,0.00,,---,0.00,VWS V14.01,2013-11-22 21:19:00,
2013-11-22 15:24:00,29.1,10.4,30.47,NW,318,7.0,18.0,45,0.00,,---,0.00,VWS V14.01,2013-11-22 21:24:00,
2013-11-22 15:29:00,28.7,11.0,30.47,NNW,347,16.0,19.0,47,0.00,,---,0.00,VWS V14.01,2013-11-22 21:29:00,
2013-11-22 15:34:00,28.4,11.7,30.48,NNW,330,5.0,17.0,49,0.00,,---,0.00,VWS V14.01,2013-11-22 21:34:00,
2013-11-22 15:39:00,28.2,11.5,30.48,NW,308,10.0,17.0,49,0.00,,---,0.00,VWS V14.01,2013-11-22 21:39:00,
2013-11-22 15:44:00,27.8,10.7,30.48,NW,320,17.0,17.0,48,0.00,,---,0.00,VWS V14.01,2013-11-22 21:44:00,
2013-11-22 15:49:00,26.9,10.3,30.49,NW,306,11.0,17.0,49,0.00,,---,0.00,VWS V14.01,2013-11-22 21:49:00,
2013-11-22 15:54:00,26.4,10.3,30.49,NNW,332,5.0,11.0,50,0.00,,---,0.00,VWS V14.01,2013-11-22 21:54:00,
2013-11-22 15:59:00,26.0,10.4,30.49,North,350,5.0,13.0,51,0.00,,---,0.00,VWS V14.01,2013-11-22 21:59:00,
2013-11-22 16:04:00,25.7,10.5,30.50,NNW,340,10.0,18.0,52,0.00,,---,0.00,VWS V14.01,2013-11-22 22:04:00,
2013-11-22 16:09:00,25.3,11.0,30.50,NNW,328,8.0,18.0,54,0.00,,---,0.00,VWS V14.01,2013-11-22 22:09:00,
2013-11-22 16:14:00,25.1,10.8,30.50,NNW,339,5.0,13.0,54,0.00,,---,0.00,VWS V14.01,2013-11-22 22:14:00,
2013-11-22 16:19:00,25.0,11.5,30.51,NW,320,11.0,13.0,56,0.00,,---,0.00,VWS V14.01,2013-11-22 22:19:00,
2013-11-22 16:24:00,24.7,11.2,30.51,North,357,7.0,16.0,56,0.00,,---,0.00,VWS V14.01,2013-11-22 22:24:00,
2013-11-22 16:29:00,24.2,11.2,30.51,NNW,344,7.0,16.0,57,0.00,,---,0.00,VWS V14.01,2013-11-22 22:29:00,
2013-11-22 16:34:00,23.9,10.9,30.51,NW,319,7.0,14.0,57,0.00,,---,0.00,VWS V14.01,2013-11-22 22:34:00,
2013-11-22 16:39:00,23.8,11.2,30.51,NW,306,13.0,17.0,58,0.00,,---,0.00,VWS V14.01,2013-11-22 22:39:00,
2013-11-22 16:44:00,23.6,11.4,30.51,NW,312,11.0,16.0,59,0.00,,---,0.00,VWS V14.01,2013-11-22 22:44:00,
2013-11-22 16:49:00,23.6,11.4,30.52,NW,322,7.0,16.0,59,0.00,,---,0.00,VWS V14.01,2013-11-22 22:49:00,
2013-11-22 16:53:00,23.5,11.3,30.52,NNW,340,5.0,13.0,59,0.00,,---,0.00,VWS V14.01,2013-11-22 22:53:00,
2013-11-22 16:58:00,23.3,11.5,30.52,North,353,6.0,13.0,60,0.00,,---,0.00,VWS V14.01,2013-11-22 22:58:00,
2013-11-22 17:03:00,23.3,11.9,30.52,NNW,342,11.0,11.0,61,0.00,,---,0.00,VWS V14.01,2013-11-22 23:03:00,
2013-11-22 17:08:00,23.3,12.2,30.52,NW,319,6.0,18.0,62,0.00,,---,0.00,VWS V14.01,2013-11-22 23:08:00,
2013-11-22 17:13:00,23.3,12.2,30.52,NNW,336,8.0,12.0,62,0.00,,---,0.00,VWS V14.01,2013-11-22 23:13:00,
2013-11-22 17:18:00,23.2,12.8,30.53,North,354,13.0,16.0,64,0.00,,---,0.00,VWS V14.01,2013-11-22 23:18:00,
2013-11-22 17:23:00,23.0,13.0,30.53,North,349,12.0,18.0,65,0.00,,---,0.00,VWS V14.01,2013-11-22 23:23:00,
2013-11-22 17:28:00,22.7,13.4,30.53,North,356,12.0,18.0,67,0.00,,---,0.00,VWS V14.01,2013-11-22 23:28:00,
2013-11-22 17:33:00,22.5,13.2,30.54,North,354,7.0,14.0,67,0.00,,---,0.00,VWS V14.01,2013-11-22 23:33:00,
2013-11-22 17:38:00,22.2,13.9,30.54,NNW,344,9.0,14.0,70,0.00,,---,0.00,VWS V14.01,2013-11-22 23:38:00,
2013-11-22 17:43:00,21.6,15.2,30.54,North,353,10.0,18.0,76,0.00,,---,0.00,VWS V14.01,2013-11-22 23:43:00,
2013-11-22 17:48:00,21.3,16.1,30.54,NNW,329,7.0,18.0,80,0.00,,---,0.00,VWS V14.01,2013-11-22 23:48:00,
2013-11-22 17:53:00,21.0,16.7,30.54,North,353,6.0,10.0,83,0.00,,---,0.00,VWS V14.01,2013-11-22 23:53:00,
2013-11-22 17:58:00,21.0,17.2,30.54,NNW,337,7.0,11.0,85,0.00,,---,0.00,VWS V14.01,2013-11-22 23:58:00,
2013-11-22 18:03:00,19.5,14.1,30.56,North,349,6.0,19.0,79,0.00,,---,0.00,VWS V14.01,2013-11-23 00:03:00,
2013-11-22 18:08:00,19.2,13.2,30.56,North,357,6.0,19.0,77,0.00,,---,0.00,VWS V14.01,2013-11-23 00:08:00,
2013-11-22 18:13:00,19.2,12.9,30.56,NNW,346,3.0,12.0,76,0.00,,---,0.00,VWS V14.01,2013-11-23 00:13:00,
2013-11-22 18:18:00,19.2,12.6,30.57,NNW,332,7.0,13.0,75,0.00,,---,0.00,VWS V14.01,2013-11-23 00:18:00,
2013-11-22 18:23:00,19.2,12.6,30.57,NNW,347,4.0,18.0,75,0.00,,---,0.00,VWS V14.01,2013-11-23 00:23:00,
2013-11-22 18:28:00,19.1,13.1,30.57,North,0,6.0,18.0,77,0.00,,---,0.00,VWS V14.01,2013-11-23 00:28:00,
2013-11-22 18:33:00,18.9,13.2,30.57,North,349,10.0,12.0,78,0.00,,---,0.00,VWS V14.01,2013-11-23 00:33:00,
2013-11-22 18:38:00,18.8,12.8,30.57,NNW,336,6.0,12.0,77,0.00,,---,0.00,VWS V14.01,2013-11-23 00:38:00,
2013-11-22 18:43:00,18.8,12.8,30.57,North,352,7.0,16.0,77,0.00,,---,0.00,VWS V14.01,2013-11-23 00:43:00,
2013-11-22 18:48:00,18.6,12.6,30.57,North,350,8.0,16.0,77,0.00,,---,0.00,VWS V14.01,2013-11-23 00:48:00,
2013-11-22 18:53:00,18.6,12.3,30.57,North,359,17.0,17.0,76,0.00,,---,0.00,VWS V14.01,2013-11-23 00:53:00,
2013-11-22 18:58:00,18.6,12.0,30.57,NNW,335,11.0,17.0,75,0.00,,---,0.00,VWS V14.01,2013-11-23 00:58:00,
2013-11-22 19:03:00,18.6,12.0,30.58,NNW,336,11.0,11.0,75,0.00,,---,0.00,VWS V14.01,2013-11-23 01:03:00,
2013-11-22 19:08:00,18.6,12.0,30.58,North,354,6.0,18.0,75,0.00,,---,0.00,VWS V14.01,2013-11-23 01:08:00,
2013-11-22 19:13:00,18.4,11.8,30.58,NNW,330,6.0,12.0,75,0.00,,---,0.00,VWS V14.01,2013-11-23 01:13:00,
2013-11-22 19:18:00,18.4,11.8,30.58,North,0,7.0,14.0,75,0.00,,---,0.00,VWS V14.01,2013-11-23 01:18:00,
2013-11-22 19:23:00,18.3,11.1,30.58,NW,320,10.0,13.0,73,0.00,,---,0.00,VWS V14.01,2013-11-23 01:23:00,
2013-11-22 19:28:00,18.0,10.5,30.58,NNW,335,9.0,13.0,72,0.00,,---,0.00,VWS V14.01,2013-11-23 01:28:00,
2013-11-22 19:33:00,17.2,7.8,30.59,NNW,340,10.0,14.0,66,0.00,,---,0.00,VWS V14.01,2013-11-23 01:33:00,
2013-11-22 19:38:00,16.5,6.5,30.59,NNW,332,8.0,17.0,64,0.00,,---,0.00,VWS V14.01,2013-11-23 01:38:00,
2013-11-22 19:43:00,16.1,7.1,30.59,NNW,335,7.0,17.0,67,0.00,,---,0.00,VWS V14.01,2013-11-23 01:43:00,
2013-11-22 19:48:00,15.6,6.9,30.61,North,0,8.0,17.0,68,0.00,,---,0.00,VWS V14.01,2013-11-23 01:48:00,
2013-11-22 19:53:00,15.2,6.9,30.61,North,0,5.0,12.0,69,0.00,,---,0.00,VWS V14.01,2013-11-23 01:53:00,
2013-11-22 19:58:00,14.9,6.9,30.61,NW,316,6.0,12.0,70,0.00,,---,0.00,VWS V14.01,2013-11-23 01:58:00,
2013-11-22 20:03:00,14.6,6.3,30.61,NNW,339,8.0,16.0,69,0.00,,---,0.00,VWS V14.01,2013-11-23 02:03:00,
2013-11-22 20:08:00,14.1,5.2,30.61,North,0,10.0,19.0,67,0.00,,---,0.00,VWS V14.01,2013-11-23 02:08:00,
2013-11-22 20:13:00,14.0,5.1,30.61,NNW,347,3.0,12.0,67,0.00,,---,0.00,VWS V14.01,2013-11-23 02:13:00,
2013-11-22 20:18:00,13.6,4.0,30.61,North,0,11.0,22.0,65,0.00,,---,0.00,VWS V14.01,2013-11-23 02:18:00,
2013-11-22 20:23:00,13.5,3.6,30.61,North,0,12.0,16.0,64,0.00,,---,0.00,VWS V14.01,2013-11-23 02:23:00,
2013-11-22 20:28:00,13.1,3.2,30.61,NNW,336,8.0,18.0,64,0.00,,---,0.00,VWS V14.01,2013-11-23 02:28:00,
2013-11-22 20:33:00,12.9,2.3,30.62,North,359,8.0,20.0,62,0.00,,---,0.00,VWS V14.01,2013-11-23 02:33:00,
2013-11-22 20:38:00,12.6,2.1,30.62,North,0,4.0,20.0,62,0.00,,---,0.00,VWS V14.01,2013-11-23 02:38:00,
2013-11-22 20:43:00,12.6,2.1,30.62,NNW,339,12.0,20.0,62,0.00,,---,0.00,VWS V14.01,2013-11-23 02:43:00,
2013-11-22 20:48:00,12.4,1.9,30.63,North,356,10.0,20.0,62,0.00,,---,0.00,VWS V14.01,2013-11-23 02:48:00,
2013-11-22 20:53:00,12.3,2.5,30.63,NNW,339,13.0,13.0,64,0.00,,---,0.00,VWS V14.01,2013-11-23 02:53:00,
2013-11-22 20:58:00,12.1,3.3,30.63,NNW,343,5.0,13.0,67,0.00,,---,0.00,VWS V14.01,2013-11-23 02:58:00,
2013-11-22 21:03:00,11.7,2.5,30.63,North,359,8.0,17.0,66,0.00,,---,0.00,VWS V14.01,2013-11-23 03:03:00,
2013-11-22 21:08:00,11.6,2.5,30.63,NNW,346,5.0,17.0,66,0.00,,---,0.00,VWS V14.01,2013-11-23 03:08:00,
2013-11-22 21:13:00,11.2,2.1,30.63,North,7,8.0,16.0,66,0.00,,---,0.00,VWS V14.01,2013-11-23 03:13:00,
2013-11-22 21:18:00,11.1,2.0,30.63,NW,325,9.0,17.0,66,0.00,,---,0.00,VWS V14.01,2013-11-23 03:18:00,
2013-11-22 21:23:00,10.9,2.1,30.63,North,1,15.0,17.0,67,0.00,,---,0.00,VWS V14.01,2013-11-23 03:23:00,
2013-11-22 21:28:00,10.7,2.2,30.63,NW,322,8.0,17.0,68,0.00,,---,0.00,VWS V14.01,2013-11-23 03:28:00,
2013-11-22 21:33:00,10.4,2.0,30.64,North,0,7.0,17.0,68,0.00,,---,0.00,VWS V14.01,2013-11-23 03:33:00,
2013-11-22 21:38:00,10.2,2.1,30.64,North,354,8.0,19.0,69,0.00,,---,0.00,VWS V14.01,2013-11-23 03:38:00,
2013-11-22 21:43:00,10.0,1.9,30.64,North,0,11.0,20.0,69,0.00,,---,0.00,VWS V14.01,2013-11-23 03:43:00,
2013-11-22 21:48:00,9.9,1.8,30.64,North,357,12.0,20.0,69,0.00,,---,0.00,VWS V14.01,2013-11-23 03:48:00,
2013-11-22 21:53:00,9.7,1.6,30.64,North,0,12.0,17.0,69,0.00,,---,0.00,VWS V14.01,2013-11-23 03:53:00,
2013-11-22 21:58:00,9.7,1.6,30.64,North,352,11.0,17.0,69,0.00,,---,0.00,VWS V14.01,2013-11-23 03:58:00,
2013-11-22 22:03:00,9.5,1.4,30.65,North,359,10.0,17.0,69,0.00,,---,0.00,VWS V14.01,2013-11-23 04:03:00,
2013-11-22 22:08:00,9.3,1.5,30.65,NNW,332,14.0,24.0,70,0.00,,---,0.00,VWS V14.01,2013-11-23 04:08:00,
2013-11-22 22:13:00,9.2,1.7,30.65,North,359,7.0,13.0,71,0.00,,---,0.00,VWS V14.01,2013-11-23 04:13:00,
2013-11-22 22:18:00,8.8,1.3,30.65,North,8,4.0,18.0,71,0.00,,---,0.00,VWS V14.01,2013-11-23 04:18:00,
2013-11-22 22:23:00,8.6,1.1,30.65,NNE,16,10.0,14.0,71,0.00,,---,0.00,VWS V14.01,2013-11-23 04:23:00,
2013-11-22 22:28:00,8.4,0.9,30.65,NNW,343,14.0,18.0,71,0.00,,---,0.00,VWS V14.01,2013-11-23 04:28:00,
2013-11-22 22:32:00,8.3,0.9,30.65,North,0,9.0,15.0,71,0.00,,---,0.00,VWS V14.01,2013-11-23 04:32:00,
2013-11-22 22:38:00,8.1,1.0,30.65,NNW,339,10.0,15.0,72,0.00,,---,0.00,VWS V14.01,2013-11-23 04:38:00,
2013-11-22 22:43:00,7.9,1.1,30.65,NNW,342,5.0,12.0,73,0.00,,---,0.00,VWS V14.01,2013-11-23 04:43:00,
2013-11-22 22:48:00,7.7,0.9,30.66,NNW,329,11.0,14.0,73,0.00,,---,0.00,VWS V14.01,2013-11-23 04:48:00,
2013-11-22 22:52:00,7.6,1.1,30.66,North,0,5.0,16.0,74,0.00,,---,0.00,VWS V14.01,2013-11-23 04:52:00,
2013-11-22 22:57:00,7.4,0.9,30.66,North,356,7.0,17.0,74,0.00,,---,0.00,VWS V14.01,2013-11-23 04:57:00,
2013-11-22 23:01:00,7.4,0.9,30.67,North,350,6.0,12.0,74,0.00,,---,0.00,VWS V14.01,2013-11-23 05:01:00,
2013-11-22 23:06:00,7.2,0.7,30.67,North,359,3.0,13.0,74,0.00,,---,0.00,VWS V14.01,2013-11-23 05:06:00,
2013-11-22 23:11:00,7.2,1.0,30.67,NNW,343,5.0,10.0,75,0.00,,---,0.00,VWS V14.01,2013-11-23 05:11:00,
2013-11-22 23:16:00,7.0,0.8,30.67,NNW,347,5.0,10.0,75,0.00,,---,0.00,VWS V14.01,2013-11-23 05:16:00,
2013-11-22 23:21:00,6.9,0.7,30.67,North,349,3.0,5.0,75,0.00,,---,0.00,VWS V14.01,2013-11-23 05:21:00,
2013-11-22 23:26:00,6.9,0.7,30.67,North,356,3.0,6.0,75,0.00,,---,0.00,VWS V14.01,2013-11-23 05:26:00,
2013-11-22 23:31:00,6.7,0.5,30.68,NNW,347,6.0,9.0,75,0.00,,---,0.00,VWS V14.01,2013-11-23 05:31:00,
2013-11-22 23:36:00,6.7,0.5,30.68,NNE,23,3.0,10.0,75,0.00,,---,0.00,VWS V14.01,2013-11-23 05:36:00,
2013-11-22 23:41:00,6.5,0.3,30.68,NNW,347,5.0,6.0,75,0.00,,---,0.00,VWS V14.01,2013-11-23 05:41:00,
2013-11-22 23:46:00,6.5,0.0,30.68,North,11,1.0,10.0,74,0.00,,---,0.00,VWS V14.01,2013-11-23 05:46:00,
2013-11-22 23:51:00,6.5,0.0,30.68,North,7,3.0,11.0,74,0.00,,---,0.00,VWS V14.01,2013-11-23 05:51:00,
2013-11-22 23:56:00,6.3,-0.2,30.68,North,359,2.0,11.0,74,0.00,,---,0.00,VWS V14.01,2013-11-23 05:56:00,